Aviation Digital Data Service (ADDS)

Output produced by METARs form (2232 UTC 01 February 2023)
found at http://www.aviationweather.gov/metar/data/
 
KCAE 012156Z 05008KT 10SM BKN031 BKN040 OVC048 17/11 A3015 RMK AO2 SLP208 T01670106
KCAE 012103Z 0121/0218 01006KT P6SM SCT015 BKN035 
     TEMPO 0122/0201 BKN015 
     FM020100 01004KT P6SM OVC015 
     FM020400 05006KT P6SM BKN005 OVC010 
     FM020800 06005KT P6SM VCSH OVC006 
     FM021400 06003KT 3SM -DZ OVC004